YMEY weather

Mullaley Airport
New South Wales, Australia

Public forecast

Using degrees Celsius for public forecast. Weather courtesy of forecast.io.

METAR (pilot weather report)

Closest report is Coonabarabran Airport, 36.2 nm (67.0 km) WSW. Retrieved 2019/04/25 23:00 UTC (17 minutes ago):

YCBB 252300Z AUTO 19005KT 9999 // NCD 21/13 Q1020

TAF (pilot weather forecast)

Closest forecast is Tamworth Airport, 47.8 nm (88.6 km) E. Retrieved 2019/04/25 18:36 UTC (5 hours ago):

TAF YSTW 251655Z 2518/2612 14008KT 9999 FEW050 FM260000 30008KT CAVOK FM260300 26012KT CAVOK